createdAt,value
2022-08-01T00:00:09.918Z,16.75
2022-08-01T00:02:38.477Z,16.78
2022-08-01T00:05:06.807Z,16.43
2022-08-01T00:07:34.244Z,16.45
2022-08-01T00:10:02.586Z,16.43
2022-08-01T00:12:30.596Z,16.32
2022-08-01T00:14:57.587Z,15.99
2022-08-01T00:17:25.619Z,16.20
2022-08-01T00:19:52.895Z,16.37
2022-08-01T00:22:19.907Z,16.34
2022-08-01T00:24:46.823Z,16.14
2022-08-01T00:27:15.104Z,16.33
2022-08-01T00:30:10.153Z,16.27
2022-08-01T00:32:32.457Z,16.22
2022-08-01T00:34:59.459Z,16.04
2022-08-01T00:37:28.604Z,15.87
2022-08-01T00:39:55.471Z,15.97
2022-08-01T00:42:23.839Z,15.89
2022-08-01T00:44:52.203Z,15.92
2022-08-01T00:47:19.024Z,15.93
2022-08-01T00:49:49.161Z,15.91
2022-08-01T00:52:16.447Z,15.89
2022-08-01T00:54:45.635Z,15.83
2022-08-01T00:57:12.947Z,15.72
2022-08-01T00:59:43.987Z,15.69
2022-08-01T01:02:14.642Z,15.77
2022-08-01T01:04:43.007Z,15.68
2022-08-01T01:07:17.909Z,15.76
2022-08-01T01:09:53.984Z,15.72
2022-08-01T01:12:25.823Z,15.69
2022-08-01T01:15:04.465Z,15.75
2022-08-01T01:17:50.516Z,15.61
2022-08-01T01:20:22.823Z,15.42
2022-08-01T01:23:03.898Z,15.26
2022-08-01T01:25:53.288Z,15.22
2022-08-01T01:28:36.250Z,15.16
2022-08-01T01:31:08.441Z,15.28
2022-08-01T01:33:45.342Z,15.38
2022-08-01T01:36:15.647Z,15.35
2022-08-01T01:38:45.116Z,15.30
2022-08-01T01:41:15.147Z,15.36
2022-08-01T01:43:43.304Z,15.36
2022-08-01T01:46:16.431Z,15.49
2022-08-01T01:48:45.903Z,15.60
2022-08-01T01:51:14.126Z,15.61
2022-08-01T01:53:42.516Z,15.74
2022-08-01T01:56:10.978Z,15.68
2022-08-01T01:58:39.054Z,15.52
2022-08-01T02:01:14.422Z,15.57
2022-08-01T02:03:44.422Z,15.66
2022-08-01T02:06:14.614Z,15.55
2022-08-01T02:08:43.060Z,15.37
2022-08-01T02:11:12.491Z,15.45
2022-08-01T02:13:41.463Z,15.52
2022-08-01T02:16:09.935Z,15.43
2022-08-01T02:18:36.907Z,15.43
2022-08-01T02:21:13.147Z,15.49
2022-08-01T02:23:43.896Z,15.56
2022-08-01T02:26:14.497Z,15.65
2022-08-01T02:28:49.088Z,15.69
2022-08-01T02:31:19.922Z,15.57
2022-08-01T02:33:53.302Z,15.56
2022-08-01T02:36:30.016Z,15.39
2022-08-01T02:39:03.784Z,15.54
2022-08-01T02:41:31.890Z,15.55
2022-08-01T02:44:03.897Z,15.51
2022-08-01T02:46:36.145Z,15.59
2022-08-01T02:49:06.590Z,15.61
2022-08-01T02:51:36.192Z,15.51
2022-08-01T02:54:08.955Z,15.50
2022-08-01T02:56:39.768Z,15.30
2022-08-01T02:59:10.355Z,15.39
2022-08-01T03:01:37.686Z,15.21
2022-08-01T03:04:07.944Z,15.20
2022-08-01T03:06:38.001Z,14.98
2022-08-01T03:09:07.939Z,14.95
2022-08-01T03:11:38.213Z,14.94
2022-08-01T03:14:10.214Z,14.89
2022-08-01T03:16:40.729Z,14.72
2022-08-01T03:19:10.871Z,14.59
2022-08-01T03:21:42.145Z,14.55
2022-08-01T03:24:10.898Z,14.61
2022-08-01T03:26:42.552Z,14.68
2022-08-01T03:29:18.335Z,14.73
2022-08-01T03:31:46.736Z,14.68
2022-08-01T03:34:13.805Z,14.65
2022-08-01T03:36:47.795Z,14.60
2022-08-01T03:39:18.748Z,14.68
2022-08-01T03:41:59.643Z,14.76
2022-08-01T03:44:28.701Z,14.82
2022-08-01T03:47:01.822Z,14.93
2022-08-01T03:49:33.156Z,15.02
2022-08-01T03:52:04.048Z,15.01
2022-08-01T03:54:35.718Z,15.03
2022-08-01T03:57:04.042Z,15.07
2022-08-01T03:59:32.923Z,14.86
2022-08-01T04:02:00.640Z,14.89
2022-08-01T04:04:29.553Z,14.94
2022-08-01T04:06:58.772Z,14.87
2022-08-01T04:09:28.424Z,14.95
2022-08-01T04:11:56.636Z,14.90
2022-08-01T04:14:23.474Z,14.97
2022-08-01T04:16:51.366Z,15.08
2022-08-01T04:19:18.251Z,15.06
2022-08-01T04:21:45.885Z,15.15
2022-08-01T04:24:15.947Z,15.10
2022-08-01T04:26:48.284Z,15.05
2022-08-01T04:29:17.397Z,14.98
2022-08-01T04:31:50.619Z,15.00
2022-08-01T04:34:21.349Z,15.22
2022-08-01T04:36:49.658Z,15.05
2022-08-01T04:39:19.483Z,15.02
2022-08-01T04:41:49.585Z,14.91
2022-08-01T04:44:18.062Z,14.86
2022-08-01T04:46:46.803Z,14.81
2022-08-01T04:49:15.323Z,14.64
2022-08-01T04:51:56.253Z,14.86
2022-08-01T04:54:23.089Z,15.06
2022-08-01T04:56:51.626Z,15.12
2022-08-01T04:59:20.466Z,15.14
2022-08-01T05:01:51.350Z,14.97
2022-08-01T05:04:19.348Z,15.01
2022-08-01T05:06:46.362Z,15.06
2022-08-01T05:09:13.711Z,15.03
2022-08-01T05:11:40.709Z,15.10
2022-08-01T05:14:09.100Z,15.15
2022-08-01T05:16:36.004Z,15.17
2022-08-01T05:19:04.157Z,15.10
2022-08-01T05:21:31.794Z,15.22
2022-08-01T05:23:58.738Z,15.34
2022-08-01T05:26:26.122Z,15.39
2022-08-01T05:28:53.602Z,15.24
2022-08-01T05:31:22.190Z,15.61
2022-08-01T05:33:49.423Z,16.04
2022-08-01T05:36:16.309Z,17.20
2022-08-01T05:38:44.416Z,18.53
2022-08-01T05:41:11.780Z,19.70
2022-08-01T05:43:39.908Z,20.62
2022-08-01T05:46:06.956Z,21.33
2022-08-01T05:48:36.671Z,21.81
2022-08-01T05:51:04.013Z,21.67
2022-08-01T05:53:31.256Z,21.81
2022-08-01T05:56:01.830Z,22.40
2022-08-01T05:58:28.831Z,22.19
2022-08-01T06:01:01.778Z,22.56
2022-08-01T06:03:29.168Z,22.60
2022-08-01T06:06:00.933Z,22.62
2022-08-01T06:08:28.258Z,22.82
2022-08-01T06:10:57.019Z,22.82
2022-08-01T06:13:25.383Z,22.94
2022-08-01T06:15:53.754Z,22.88
2022-08-01T06:18:21.536Z,23.13
2022-08-01T06:20:52.586Z,22.91
2022-08-01T06:23:32.516Z,22.50
2022-08-01T06:26:00.454Z,22.35
2022-08-01T06:28:28.761Z,22.56
2022-08-01T06:30:55.700Z,22.77
2022-08-01T06:33:26.084Z,23.03
2022-08-01T06:35:55.607Z,23.30
2022-08-01T06:38:24.306Z,23.03
2022-08-01T06:40:52.539Z,22.95
2022-08-01T06:43:19.467Z,23.19
2022-08-01T06:45:46.670Z,23.33
2022-08-01T06:48:13.746Z,23.14
2022-08-01T06:50:43.604Z,23.28
2022-08-01T06:53:10.662Z,23.34
2022-08-01T06:55:42.008Z,23.55
2022-08-01T06:58:13.007Z,23.90
2022-08-01T07:00:40.572Z,24.22
2022-08-01T07:03:10.611Z,24.17
2022-08-01T07:05:37.535Z,24.57
2022-08-01T07:08:06.284Z,24.80
2022-08-01T07:10:34.325Z,24.66
2022-08-01T07:13:05.159Z,24.75
2022-08-01T07:15:33.895Z,24.94
2022-08-01T07:18:06.648Z,25.22
2022-08-01T07:20:37.621Z,25.06
2022-08-01T07:23:06.324Z,25.32
2022-08-01T07:25:36.221Z,25.45
2022-08-01T07:28:08.280Z,25.03
2022-08-01T07:30:35.788Z,25.03
2022-08-01T07:33:04.171Z,25.11
2022-08-01T07:35:33.836Z,25.47
2022-08-01T07:38:02.066Z,25.69
2022-08-01T07:40:29.613Z,25.88
2022-08-01T07:42:57.331Z,26.02
2022-08-01T07:45:25.961Z,26.11
2022-08-01T07:47:56.443Z,26.34
2022-08-01T07:50:23.526Z,26.44
2022-08-01T07:52:52.140Z,26.63
2022-08-01T07:55:19.338Z,26.54
2022-08-01T10:39:00.525Z,29.99
2022-08-01T10:41:28.788Z,30.32
2022-08-01T10:43:58.472Z,30.52
2022-08-01T10:46:26.114Z,30.63
2022-08-01T10:48:59.722Z,30.63
2022-08-01T10:51:52.216Z,30.17
2022-08-01T10:54:20.127Z,30.35
2022-08-01T10:56:53.135Z,30.06
2022-08-01T10:59:50.312Z,30.18
2022-08-01T11:02:12.592Z,30.64
2022-08-01T11:04:55.419Z,30.65
2022-08-01T11:07:37.029Z,30.68
2022-08-01T11:10:14.916Z,30.84
2022-08-01T11:12:44.168Z,30.60
2022-08-01T11:15:29.866Z,30.78
2022-08-01T11:18:02.994Z,30.34
2022-08-01T11:20:34.247Z,30.49
2022-08-01T11:23:26.820Z,30.64
2022-08-01T11:26:13.167Z,30.81
2022-08-01T11:28:44.508Z,30.59
2022-08-01T11:31:31.112Z,30.88
2022-08-01T11:34:08.127Z,30.97
2022-08-01T11:39:22.638Z,31.15
2022-08-01T11:41:52.450Z,30.95
2022-08-01T11:44:25.068Z,30.92
2022-08-01T11:46:57.871Z,30.70
2022-08-01T11:49:32.842Z,30.67
2022-08-01T11:52:01.946Z,30.78
2022-08-01T11:54:35.279Z,30.99
2022-08-01T11:57:09.063Z,30.39
2022-08-01T11:59:41.340Z,30.98
2022-08-01T12:02:30.538Z,30.85
2022-08-01T12:04:59.147Z,30.84
2022-08-01T12:07:28.487Z,31.10
2022-08-01T12:10:01.252Z,30.73
2022-08-01T12:12:32.995Z,31.10
2022-08-01T12:15:01.542Z,31.30
2022-08-01T12:17:31.605Z,31.33
2022-08-01T12:19:58.667Z,30.71
2022-08-01T12:22:27.910Z,30.86
2022-08-01T12:24:59.597Z,31.22
2022-08-01T12:27:31.327Z,31.38
2022-08-01T12:30:06.358Z,31.44
2022-08-01T12:32:36.081Z,30.67
2022-08-01T12:35:05.960Z,30.43
2022-08-01T12:37:35.627Z,29.62
2022-08-01T12:40:09.911Z,29.33
2022-08-01T12:42:40.536Z,29.55
2022-08-01T12:45:12.317Z,29.87
2022-08-01T12:47:42.803Z,28.74
2022-08-01T12:50:15.204Z,29.03
2022-08-01T12:52:42.675Z,28.65
2022-08-01T12:55:14.115Z,28.48
2022-08-01T12:57:46.117Z,28.27
2022-08-01T13:00:28.270Z,28.55
2022-08-01T13:03:03.790Z,29.25
2022-08-01T13:05:44.384Z,29.46
2022-08-01T13:08:12.665Z,29.58
2022-08-01T13:10:41.769Z,29.50
2022-08-01T13:13:11.039Z,29.70
2022-08-01T13:16:05.680Z,29.76
2022-08-01T13:18:33.637Z,29.69
2022-08-01T13:21:11.821Z,29.47
2022-08-01T13:24:02.702Z,29.95
2022-08-01T13:26:42.025Z,29.58
2022-08-01T13:29:11.775Z,29.27
2022-08-01T13:31:41.160Z,29.35
2022-08-01T13:34:10.913Z,28.85
2022-08-01T13:36:39.418Z,28.92
2022-08-01T13:39:09.557Z,28.88
2022-08-01T13:41:36.458Z,28.42
2022-08-01T13:44:05.615Z,28.42
2022-08-01T13:46:36.600Z,28.38
2022-08-01T13:49:15.123Z,28.41
2022-08-01T13:51:43.323Z,28.65
2022-08-01T13:54:14.697Z,29.14
2022-08-01T13:56:41.766Z,28.98
2022-08-01T13:59:16.246Z,28.30
2022-08-01T14:01:46.243Z,28.47
2022-08-01T14:04:15.972Z,28.56
2022-08-01T14:06:42.908Z,28.49
2022-08-01T14:09:17.729Z,28.66
2022-08-01T14:11:45.994Z,28.70
2022-08-01T14:14:14.526Z,29.01
2022-08-01T14:16:42.826Z,29.23
2022-08-01T14:19:13.478Z,29.51
2022-08-01T14:21:41.755Z,29.02
2022-08-01T14:24:12.024Z,29.01
2022-08-01T14:26:39.708Z,29.12
2022-08-01T14:29:18.296Z,29.07
2022-08-01T14:31:51.705Z,29.28
2022-08-01T14:34:28.642Z,29.51
2022-08-01T14:37:07.143Z,29.64
2022-08-01T14:39:38.416Z,29.20
2022-08-01T14:42:21.771Z,29.03
2022-08-01T14:44:49.956Z,29.23
2022-08-01T14:47:22.261Z,29.16
2022-08-01T14:49:52.726Z,29.09
2022-08-01T14:52:20.880Z,28.99
2022-08-01T14:54:54.848Z,28.87
2022-08-01T14:57:23.844Z,28.71
2022-08-01T14:59:52.320Z,28.56
2022-08-01T15:02:28.381Z,28.26
2022-08-01T15:05:05.452Z,28.10
2022-08-01T15:07:52.180Z,27.99
2022-08-01T15:10:20.493Z,27.93
2022-08-01T15:12:53.911Z,27.74
2022-08-01T15:15:20.938Z,27.72
2022-08-01T15:17:50.238Z,27.62
2022-08-01T15:20:18.607Z,27.28
2022-08-01T15:22:48.995Z,27.51
2022-08-01T15:25:16.011Z,27.57
2022-08-01T15:27:46.091Z,27.58
2022-08-01T15:30:13.347Z,27.47
2022-08-01T15:32:43.278Z,27.40
2022-08-01T15:35:10.324Z,27.35
2022-08-01T15:37:43.171Z,27.21
2022-08-01T15:40:12.622Z,27.02
2022-08-01T15:42:39.982Z,26.78
2022-08-01T15:45:20.674Z,26.40
2022-08-01T15:47:57.883Z,26.15
2022-08-01T15:50:25.880Z,26.08
2022-08-01T15:52:56.968Z,25.63
2022-08-01T15:55:29.887Z,25.64
2022-08-01T15:57:58.798Z,25.45
2022-08-01T16:00:32.827Z,25.44
2022-08-01T16:03:07.371Z,25.45
2022-08-01T16:05:43.976Z,25.26
2022-08-01T16:08:13.677Z,25.23
2022-08-01T16:10:41.374Z,25.21
2022-08-01T16:13:08.532Z,25.11
2022-08-01T16:15:40.056Z,25.14
2022-08-01T16:18:08.928Z,25.09
2022-08-01T16:20:44.346Z,25.13
2022-08-01T16:23:15.553Z,25.07
2022-08-01T16:25:46.076Z,25.11
2022-08-01T16:28:17.103Z,25.07
2022-08-01T16:30:53.289Z,25.11
2022-08-01T16:33:49.763Z,25.12
2022-08-01T16:36:25.211Z,25.16
2022-08-01T16:38:55.156Z,25.08
2022-08-01T16:41:23.761Z,24.91
2022-08-01T16:43:53.570Z,24.68
2022-08-01T16:46:24.044Z,24.57
2022-08-01T16:48:51.377Z,24.53
2022-08-01T16:51:25.124Z,24.33
2022-08-01T16:53:53.773Z,24.26
2022-08-01T16:56:21.722Z,24.15
2022-08-01T16:58:50.963Z,24.15
2022-08-01T17:02:01.519Z,24.10
2022-08-01T17:04:13.132Z,24.04
2022-08-01T17:06:41.365Z,23.91
2022-08-01T17:09:13.868Z,23.86
2022-08-01T17:11:41.068Z,23.83
2022-08-01T17:14:10.307Z,23.87
2022-08-01T17:16:37.373Z,23.76
2022-08-01T17:19:04.794Z,23.69
2022-08-01T17:21:31.659Z,23.64
2022-08-01T17:24:04.231Z,23.63
2022-08-01T17:26:35.130Z,23.64
2022-08-01T17:31:38.825Z,23.66
2022-08-01T17:34:06.730Z,23.44
2022-08-01T17:36:34.264Z,23.44
2022-08-01T17:39:08.879Z,23.20
2022-08-01T17:41:38.051Z,23.23
2022-08-01T17:44:08.314Z,23.19
2022-08-01T17:46:35.957Z,22.99
2022-08-01T17:49:04.919Z,22.97
2022-08-01T17:51:32.343Z,22.93
2022-08-01T17:54:00.682Z,22.84
2022-08-01T17:56:28.932Z,22.73
2022-08-01T17:58:57.404Z,22.71
2022-08-01T18:01:26.687Z,22.64
2022-08-01T18:03:54.200Z,22.63
2022-08-01T18:06:25.001Z,22.53
2022-08-01T18:08:55.565Z,22.54
2022-08-01T18:11:24.660Z,22.33
2022-08-01T18:13:54.482Z,22.32
2022-08-01T18:16:24.445Z,22.26
2022-08-01T18:18:55.897Z,22.27
2022-08-01T18:21:23.110Z,22.22
2022-08-01T18:23:51.944Z,22.03
2022-08-01T18:26:22.023Z,21.73
2022-08-01T18:28:49.969Z,21.79
2022-08-01T18:31:19.999Z,21.71
2022-08-01T18:33:49.027Z,21.54
2022-08-01T18:36:32.205Z,21.46
2022-08-01T18:39:04.655Z,21.40
2022-08-01T18:41:32.895Z,21.29
2022-08-01T18:44:04.035Z,21.26
2022-08-01T18:46:42.243Z,21.27
2022-08-01T18:49:14.259Z,21.27
2022-08-01T18:51:45.081Z,21.39
2022-08-01T18:54:15.069Z,21.38
2022-08-01T18:56:44.487Z,21.29
2022-08-01T18:59:18.086Z,21.32
2022-08-01T19:01:46.392Z,21.41
2022-08-01T19:04:16.010Z,21.36
2022-08-01T19:06:47.480Z,21.33
2022-08-01T19:09:20.321Z,21.20
2022-08-01T19:11:52.037Z,21.13
2022-08-01T19:14:23.752Z,21.07
2022-08-01T19:16:50.928Z,21.01
2022-08-01T19:19:27.368Z,21.10
2022-08-01T19:21:56.711Z,21.15
2022-08-01T19:24:33.311Z,20.91
2022-08-01T19:27:08.530Z,20.18
2022-08-01T19:29:50.739Z,19.73
2022-08-01T19:32:19.308Z,19.17
2022-08-01T19:34:58.980Z,18.64
2022-08-01T19:37:27.424Z,18.25
2022-08-01T19:39:56.445Z,17.84
2022-08-01T19:42:24.655Z,17.37
2022-08-01T19:44:54.067Z,17.22
2022-08-01T19:47:23.298Z,17.02
2022-08-01T19:49:56.442Z,16.93
2022-08-01T19:52:26.338Z,16.98
2022-08-01T19:54:56.007Z,16.92
2022-08-01T19:57:23.894Z,16.88
2022-08-01T19:59:58.019Z,16.69
2022-08-01T20:02:25.527Z,16.59
2022-08-01T20:04:52.786Z,16.49
2022-08-01T20:07:21.218Z,16.45
2022-08-01T20:09:48.886Z,16.36
2022-08-01T20:12:20.836Z,16.31
2022-08-01T20:14:50.218Z,16.09
2022-08-01T20:17:19.165Z,15.93
2022-08-01T20:19:46.291Z,15.72
2022-08-01T20:22:15.797Z,15.60
2022-08-01T20:24:49.357Z,15.58
2022-08-01T20:27:17.795Z,15.47
2022-08-01T20:29:46.243Z,15.58
2022-08-01T20:32:15.242Z,15.67
2022-08-01T20:34:43.869Z,15.59
2022-08-01T20:37:13.075Z,15.71
2022-08-01T20:39:42.845Z,15.68
2022-08-01T20:42:11.629Z,15.62
2022-08-01T20:44:40.884Z,15.61
2022-08-01T20:47:08.270Z,15.56
2022-08-01T20:49:37.011Z,15.53
2022-08-01T20:52:11.586Z,15.48
2022-08-01T20:54:44.599Z,15.48
2022-08-01T20:57:19.140Z,15.61
2022-08-01T20:59:55.809Z,15.55
2022-08-01T21:02:41.043Z,15.46
2022-08-01T21:05:11.546Z,15.45
2022-08-01T21:07:42.677Z,15.42
2022-08-01T21:10:11.974Z,15.38
2022-08-01T21:12:44.183Z,15.41
2022-08-01T21:15:19.734Z,15.41
2022-08-01T21:17:55.765Z,15.48
2022-08-01T21:20:29.485Z,15.50
2022-08-01T21:23:09.149Z,15.53
2022-08-01T21:25:37.166Z,15.66
2022-08-01T21:28:05.595Z,15.79
2022-08-01T21:30:34.991Z,15.93
2022-08-01T21:33:07.329Z,16.02
2022-08-01T21:35:35.131Z,16.07
2022-08-01T21:38:02.631Z,15.92
2022-08-01T21:40:34.280Z,15.84
2022-08-01T21:43:03.301Z,15.74
2022-08-01T21:45:36.105Z,15.64
2022-08-01T21:48:05.563Z,15.47
2022-08-01T21:50:41.527Z,15.40
2022-08-01T21:53:18.092Z,15.28
2022-08-01T21:56:14.702Z,15.36
2022-08-01T21:58:51.829Z,15.11
2022-08-01T22:01:27.198Z,14.97
2022-08-01T22:03:59.220Z,14.86
2022-08-01T22:06:35.146Z,14.93
2022-08-01T22:09:06.127Z,14.92
2022-08-01T22:11:37.202Z,14.93
2022-08-01T22:14:05.846Z,14.88
2022-08-01T22:16:34.224Z,14.91
2022-08-01T22:19:05.328Z,14.98
2022-08-01T22:21:34.329Z,14.89
2022-08-01T22:24:05.991Z,14.91
2022-08-01T22:26:35.624Z,14.89
2022-08-01T22:29:02.959Z,14.94
2022-08-01T22:31:29.852Z,14.89
2022-08-01T22:33:58.482Z,14.85
2022-08-01T22:36:26.544Z,14.85
2022-08-01T22:38:53.344Z,14.87
2022-08-01T22:42:01.995Z,14.82
2022-08-01T22:44:30.066Z,14.89
2022-08-01T22:47:03.406Z,14.86
2022-08-01T22:49:37.669Z,14.81
2022-08-01T22:52:11.111Z,14.72
2022-08-01T22:54:41.298Z,14.75
2022-08-01T22:57:11.856Z,14.80
2022-08-01T22:59:46.144Z,14.68
2022-08-01T23:02:16.159Z,14.86
2022-08-01T23:04:47.074Z,14.77
2022-08-01T23:07:20.098Z,14.77
2022-08-01T23:09:54.466Z,14.73
2022-08-01T23:12:23.852Z,14.68
2022-08-01T23:14:52.665Z,14.58
2022-08-01T23:17:26.634Z,14.54
2022-08-01T23:19:58.658Z,14.55
2022-08-01T23:22:28.831Z,14.50
2022-08-01T23:25:03.339Z,14.42
2022-08-01T23:27:54.199Z,14.40
2022-08-01T23:30:24.033Z,14.30
2022-08-01T23:32:51.378Z,14.26
2022-08-01T23:35:20.273Z,14.27
2022-08-01T23:37:48.520Z,14.27
2022-08-01T23:40:15.336Z,14.29
2022-08-01T23:42:43.668Z,14.23
2022-08-01T23:45:11.178Z,14.29
2022-08-01T23:47:38.655Z,14.27
2022-08-01T23:50:06.752Z,14.22
2022-08-01T23:52:47.310Z,14.17
2022-08-01T23:55:15.811Z,14.18
2022-08-01T23:57:43.335Z,14.20
